createdAt,value
2022-07-27T00:01:50.445Z,15.48
2022-07-27T00:03:44.538Z,15.32
2022-07-27T00:05:46.059Z,15.14
2022-07-27T00:07:47.134Z,14.87
2022-07-27T00:09:47.979Z,14.77
2022-07-27T00:11:49.400Z,14.88
2022-07-27T00:13:51.118Z,14.93
2022-07-27T00:15:52.302Z,14.96
2022-07-27T00:17:54.096Z,14.97
2022-07-27T00:19:55.506Z,14.99
2022-07-27T00:21:57.321Z,14.96
2022-07-27T00:23:58.316Z,15.03
2022-07-27T00:25:59.508Z,14.91
2022-07-27T00:28:00.691Z,14.84
2022-07-27T00:30:01.772Z,14.86
2022-07-27T00:32:02.878Z,14.81
2022-07-27T00:34:03.832Z,14.79
2022-07-27T00:36:05.421Z,14.83
2022-07-27T00:38:06.879Z,15.04
2022-07-27T00:40:08.384Z,15.13
2022-07-27T00:42:10.164Z,15.07
2022-07-27T00:44:11.378Z,14.97
2022-07-27T00:46:12.589Z,14.84
2022-07-27T00:48:14.294Z,14.69
2022-07-27T00:50:15.710Z,14.6
2022-07-27T00:52:16.992Z,14.54
2022-07-27T00:54:18.436Z,14.45
2022-07-27T00:56:19.324Z,14.48
2022-07-27T00:58:20.448Z,14.45
2022-07-27T01:00:24.154Z,14.39
2022-07-27T01:02:23.499Z,14.37
2022-07-27T01:04:24.563Z,14.53
2022-07-27T01:06:27.210Z,14.55
2022-07-27T01:08:27.160Z,14.56
2022-07-27T01:10:28.688Z,14.55
2022-07-27T01:12:30.119Z,14.29
2022-07-27T01:14:31.981Z,14.13
2022-07-27T01:16:33.589Z,13.97
2022-07-27T01:18:34.996Z,13.99
2022-07-27T01:20:36.790Z,14.02
2022-07-27T01:22:38.587Z,13.96
2022-07-27T01:24:40.152Z,13.89
2022-07-27T01:26:41.335Z,13.8
2022-07-27T01:28:42.467Z,13.68
2022-07-27T01:30:43.518Z,13.7
2022-07-27T01:32:45.431Z,13.87
2022-07-27T01:34:46.526Z,13.92
2022-07-27T01:36:48.180Z,13.91
2022-07-27T01:38:49.449Z,13.82
2022-07-27T01:40:50.503Z,13.69
2022-07-27T01:42:52.400Z,13.58
2022-07-27T01:44:53.364Z,13.55
2022-07-27T01:46:54.764Z,13.64
2022-07-27T01:48:56.202Z,13.54
2022-07-27T01:50:58.105Z,13.48
2022-07-27T01:52:59.272Z,13.54
2022-07-27T01:55:00.427Z,13.55
2022-07-27T01:57:01.396Z,13.55
2022-07-27T01:59:02.650Z,13.59
2022-07-27T02:01:04.049Z,13.64
2022-07-27T02:03:05.457Z,13.67
2022-07-27T02:05:07.293Z,13.68
2022-07-27T02:07:08.520Z,13.7
2022-07-27T02:09:09.847Z,13.77
2022-07-27T02:11:10.976Z,13.66
2022-07-27T02:13:22.658Z,13.38
2022-07-27T02:15:13.381Z,13.32
2022-07-27T02:17:14.349Z,13.3
2022-07-27T02:19:16.002Z,13.35
2022-07-27T02:21:16.783Z,13.31
2022-07-27T02:23:17.832Z,13.28
2022-07-27T02:25:19.665Z,13.43
2022-07-27T02:27:20.888Z,13.6
2022-07-27T02:29:22.433Z,13.8
2022-07-27T02:31:23.587Z,13.85
2022-07-27T02:33:24.991Z,13.84
2022-07-27T02:35:26.524Z,13.72
2022-07-27T02:37:27.717Z,13.53
2022-07-27T02:39:29.412Z,13.41
2022-07-27T02:41:30.988Z,13.41
2022-07-27T02:43:32.858Z,13.43
2022-07-27T02:45:34.116Z,13.44
2022-07-27T02:47:35.132Z,13.47
2022-07-27T02:49:36.946Z,13.51
2022-07-27T02:51:39.507Z,13.7
2022-07-27T02:53:40.229Z,13.8
2022-07-27T02:55:41.591Z,13.68
2022-07-27T02:57:42.553Z,13.7
2022-07-27T02:59:44.410Z,13.39
2022-07-27T03:01:46.232Z,13.13
2022-07-27T03:03:47.643Z,13.07
2022-07-27T03:05:48.851Z,13.16
2022-07-27T03:07:50.121Z,13.2
2022-07-27T03:09:52.687Z,13.12
2022-07-27T03:11:53.394Z,13.04
2022-07-27T03:13:54.763Z,12.89
2022-07-27T03:15:56.037Z,12.91
2022-07-27T03:17:57.665Z,13.03
2022-07-27T03:19:58.952Z,12.97
2022-07-27T03:22:00.865Z,13.04
2022-07-27T03:24:02.447Z,13.21
2022-07-27T03:26:04.286Z,13.21
2022-07-27T03:28:06.033Z,13.16
2022-07-27T03:30:16.875Z,13.09
2022-07-27T03:32:09.157Z,12.9
2022-07-27T03:34:10.608Z,12.79
2022-07-27T03:36:12.146Z,12.79
2022-07-27T03:38:13.639Z,12.81
2022-07-27T03:40:15.525Z,12.9
2022-07-27T03:42:16.933Z,12.87
2022-07-27T03:44:18.021Z,12.81
2022-07-27T03:46:19.141Z,12.78
2022-07-27T03:48:20.634Z,12.63
2022-07-27T03:50:22.473Z,12.51
2022-07-27T03:52:23.553Z,12.47
2022-07-27T03:54:25.446Z,12.5
2022-07-27T03:56:26.958Z,12.56
2022-07-27T03:58:28.188Z,12.71
2022-07-27T04:00:29.943Z,12.74
2022-07-27T04:02:31.361Z,12.61
2022-07-27T04:04:32.727Z,12.42
2022-07-27T04:06:34.579Z,12.35
2022-07-27T04:08:35.660Z,12.29
2022-07-27T04:10:37.357Z,12.37
2022-07-27T04:12:38.835Z,12.3
2022-07-27T04:14:40.125Z,12.72
2022-07-27T04:18:43.104Z,13.18
2022-07-27T04:20:44.430Z,13.15
2022-07-27T04:22:45.573Z,13.16
2022-07-27T04:24:47.223Z,13.08
2022-07-27T04:26:48.156Z,12.78
2022-07-27T04:28:49.626Z,12.55
2022-07-27T04:30:51.359Z,12.38
2022-07-27T04:32:52.539Z,12.33
2022-07-27T04:34:53.888Z,12.38
2022-07-27T04:36:55.319Z,12.4
2022-07-27T04:38:56.294Z,12.44
2022-07-27T04:40:58.413Z,12.73
2022-07-27T04:42:59.319Z,12.92
2022-07-27T04:45:00.876Z,13.28
2022-07-27T04:47:02.031Z,13.38
2022-07-27T04:49:03.248Z,13.31
2022-07-27T04:51:04.348Z,13.27
2022-07-27T04:53:05.426Z,13.25
2022-07-27T04:55:06.427Z,13.22
2022-07-27T04:57:07.663Z,13.25
2022-07-27T04:59:09.143Z,13.32
2022-07-27T05:01:10.122Z,13.36
2022-07-27T05:03:11.566Z,13.39
2022-07-27T05:05:12.588Z,13.48
2022-07-27T05:07:14.488Z,13.52
2022-07-27T05:09:16.352Z,13.57
2022-07-27T05:11:17.674Z,13.55
2022-07-27T05:13:19.281Z,13.73
2022-07-27T05:15:20.649Z,13.9
2022-07-27T05:17:22.371Z,14.5
2022-07-27T05:19:23.873Z,14.87
2022-07-27T05:21:25.307Z,15.24
2022-07-27T05:23:26.781Z,15.55
2022-07-27T05:25:28.261Z,15.61
2022-07-27T05:27:29.785Z,15.7
2022-07-27T05:29:31.324Z,15.56
2022-07-27T05:31:32.414Z,16.33
2022-07-27T05:33:33.573Z,16.52
2022-07-27T05:35:34.754Z,16.45
2022-07-27T05:37:36.379Z,16.33
2022-07-27T05:39:38.011Z,16.79
2022-07-27T05:41:39.269Z,17.01
2022-07-27T05:43:40.187Z,17.39
2022-07-27T05:45:41.284Z,17.79
2022-07-27T05:47:42.946Z,18.26
2022-07-27T05:48:26.683Z,18.5
2022-07-27T05:50:27.532Z,18.29
2022-07-27T05:54:29.833Z,18.12
2022-07-27T05:56:31.606Z,17.89
2022-07-27T05:58:33.353Z,17.96
2022-07-27T06:00:34.733Z,18.35
2022-07-27T06:02:35.816Z,18.39
2022-07-27T06:04:37.273Z,18.31
2022-07-27T06:06:38.650Z,17.96
2022-07-27T06:08:39.852Z,18.5
2022-07-27T06:10:41.654Z,18.71
2022-07-27T06:12:43.001Z,18.74
2022-07-27T06:14:43.825Z,19.38
2022-07-27T06:16:46.049Z,19.6
2022-07-27T06:18:47.344Z,18.91
2022-07-27T06:20:48.347Z,18.88
2022-07-27T06:22:49.828Z,18.83
2022-07-27T06:24:51.421Z,18.5
2022-07-27T06:26:52.836Z,18.62
2022-07-27T06:28:54.450Z,18.21
2022-07-27T06:30:55.930Z,18.2
2022-07-27T06:32:57.144Z,18.17
2022-07-27T06:37:00.082Z,18.63
2022-07-27T06:39:01.380Z,18.47
2022-07-27T06:41:02.552Z,18.5
2022-07-27T06:43:04.131Z,18.63
2022-07-27T06:45:05.705Z,18.46
2022-07-27T06:47:07.385Z,18.44
2022-07-27T06:49:09.380Z,18.37
2022-07-27T06:51:10.490Z,18.83
2022-07-27T06:53:11.366Z,19.18
2022-07-27T06:55:12.549Z,20.04
2022-07-27T06:57:14.141Z,20.25
2022-07-27T06:59:15.903Z,20.37
2022-07-27T07:01:17.264Z,20.88
2022-07-27T07:03:18.924Z,19.84
2022-07-27T07:05:19.932Z,19.79
2022-07-27T07:07:20.999Z,20.32
2022-07-27T07:09:22.468Z,20.54
2022-07-27T07:11:23.408Z,20.08
2022-07-27T07:13:24.738Z,20.47
2022-07-27T07:15:26.083Z,20.29
2022-07-27T07:17:27.655Z,20.67
2022-07-27T07:19:29.355Z,21.09
2022-07-27T07:21:30.875Z,20.54
2022-07-27T07:23:32.261Z,20.5
2022-07-27T07:25:33.097Z,19.8
2022-07-27T07:27:34.580Z,20.04
2022-07-27T07:29:35.803Z,20.12
2022-07-27T07:31:36.792Z,20.47
2022-07-27T07:33:38.227Z,21.05
2022-07-27T07:35:39.162Z,20.67
2022-07-27T07:37:40.351Z,20.87
2022-07-27T07:39:41.509Z,20.77
2022-07-27T07:41:43.007Z,19.96
2022-07-27T07:43:44.644Z,20.04
2022-07-27T07:45:50.376Z,20.75
2022-07-27T07:47:47.828Z,19.98
2022-07-27T07:49:49.262Z,20.03
2022-07-27T07:51:50.940Z,20.01
2022-07-27T07:53:51.967Z,20.05
2022-07-27T07:55:53.246Z,19.55
2022-07-27T07:57:54.361Z,20.5
2022-07-27T07:59:55.483Z,20.21
2022-07-27T08:01:56.408Z,20.14
2022-07-27T08:03:57.493Z,20.55
2022-07-27T08:05:58.818Z,20.26
2022-07-27T08:08:00.546Z,20.31
2022-07-27T08:10:01.924Z,20.58
2022-07-27T08:12:02.723Z,21.33
2022-07-27T08:14:03.905Z,20.81
2022-07-27T08:18:06.103Z,20.46
2022-07-27T08:20:07.532Z,20.95
2022-07-27T08:22:08.403Z,20.79
2022-07-27T08:24:09.358Z,20.79
2022-07-27T08:26:10.380Z,21.09
2022-07-27T08:28:11.269Z,20.39
2022-07-27T08:30:12.788Z,20.22
2022-07-27T08:32:14.216Z,20.26
2022-07-27T08:34:15.648Z,20.86
2022-07-27T08:36:17.142Z,21.34
2022-07-27T08:38:18.177Z,21.08
2022-07-27T08:40:41.604Z,20.63
2022-07-27T08:42:20.601Z,20.78
2022-07-27T08:44:21.619Z,21.27
2022-07-27T08:46:22.913Z,21.6
2022-07-27T08:48:24.026Z,21.11
2022-07-27T08:50:25.702Z,21.09
2022-07-27T08:52:27.500Z,22.07
2022-07-27T08:54:28.829Z,22.01
2022-07-27T08:58:31.128Z,22.3
2022-07-27T09:00:32.918Z,21.97
2022-07-27T09:02:34.269Z,22.34
2022-07-27T09:04:35.324Z,23.4
2022-07-27T09:06:36.611Z,23.2
2022-07-27T09:08:38.094Z,22.1
2022-07-27T09:10:39.075Z,21.86
2022-07-27T09:12:40.800Z,21.34
2022-07-27T09:14:43.280Z,21.28
2022-07-27T09:17:28.855Z,21.32
2022-07-27T09:18:45.816Z,21.87
2022-07-27T09:20:47.004Z,22.01
2022-07-27T09:22:47.828Z,21.58
2022-07-27T09:24:49.225Z,21.97
2022-07-27T09:26:50.463Z,21.84
2022-07-27T09:28:52.237Z,22.2
2022-07-27T09:30:53.509Z,22.5
2022-07-27T09:32:54.756Z,22.43
2022-07-27T09:34:56.231Z,22.67
2022-07-27T09:36:57.329Z,23.46
2022-07-27T09:39:02.229Z,23.18
2022-07-27T09:40:59.863Z,23.07
2022-07-27T09:43:06.031Z,23.07
2022-07-27T09:45:02.635Z,23.34
2022-07-27T09:47:04.209Z,23.3
2022-07-27T09:49:05.374Z,23.24
2022-07-27T09:51:33.182Z,23.22
2022-07-27T09:53:25.821Z,22.52
2022-07-27T09:55:09.096Z,22.95
2022-07-27T09:57:10.852Z,23.2
2022-07-27T09:59:12.307Z,23.47
2022-07-27T10:01:13.966Z,22.39
2022-07-27T10:03:15.030Z,22.66
2022-07-27T10:05:16.524Z,22.55
2022-07-27T10:07:17.440Z,22.3
2022-07-27T10:09:18.353Z,22.51
2022-07-27T10:11:19.799Z,22.79
2022-07-27T10:13:20.649Z,23.04
2022-07-27T10:15:22.400Z,23.8
2022-07-27T10:17:23.580Z,23.37
2022-07-27T10:19:25.326Z,23.78
2022-07-27T10:21:26.931Z,24.87
2022-07-27T10:23:28.464Z,24.9
2022-07-27T10:25:30.408Z,24.43
2022-07-27T10:27:31.211Z,24.21
2022-07-27T10:29:32.501Z,24.48
2022-07-27T10:31:34.200Z,23.38
2022-07-27T10:33:34.994Z,23.79
2022-07-27T10:35:36.047Z,23.32
2022-07-27T10:37:37.687Z,23.1
2022-07-27T10:41:40.242Z,24.01
2022-07-27T10:43:41.147Z,24.7
2022-07-27T10:45:50.607Z,23.41
2022-07-27T10:47:43.316Z,22.54
2022-07-27T10:49:44.447Z,21.94
2022-07-27T10:51:45.431Z,22.19
2022-07-27T10:54:11.315Z,22.1
2022-07-27T10:55:47.881Z,22.2
2022-07-27T10:57:49.290Z,22.25
2022-07-27T11:00:07.806Z,22.54
2022-07-27T11:01:52.422Z,22.83
2022-07-27T11:03:53.676Z,23.21
2022-07-27T11:06:03.354Z,23
2022-07-27T11:08:23.787Z,22.5
2022-07-27T11:10:05.066Z,22.59
2022-07-27T11:11:59.495Z,22.78
2022-07-27T11:14:01.120Z,22.39
2022-07-27T11:16:22.785Z,22.46
2022-07-27T11:18:05.093Z,22.81
2022-07-27T11:20:05.621Z,23.03
2022-07-27T11:22:18.134Z,23.06
2022-07-27T11:24:08.213Z,22.96
2022-07-27T11:26:09.029Z,22.93
2022-07-27T11:28:10.246Z,22.98
2022-07-27T11:30:11.179Z,23.09
2022-07-27T11:32:12.653Z,23.33
2022-07-27T11:34:13.785Z,23.57
2022-07-27T11:36:14.787Z,23.46
2022-07-27T11:38:16.390Z,23.24
2022-07-27T11:40:53.613Z,23.76
2022-07-27T11:42:21.429Z,23.73
2022-07-27T11:44:20.554Z,23.45
2022-07-27T11:46:22.357Z,23.74
2022-07-27T11:48:23.238Z,23.93
2022-07-27T11:50:24.821Z,23.46
2022-07-27T11:52:26.500Z,23.84
2022-07-27T11:54:28.101Z,23.31
2022-07-27T11:56:29.260Z,23.09
2022-07-27T11:58:30.096Z,23.25
2022-07-27T12:00:31.645Z,22.67
2022-07-27T12:02:32.531Z,23.1
2022-07-27T12:04:34.211Z,23.1
2022-07-27T12:06:35.849Z,22.66
2022-07-27T12:08:36.909Z,22.82
2022-07-27T12:10:37.879Z,23.06
2022-07-27T12:12:38.679Z,22.8
2022-07-27T12:14:39.682Z,22.81
2022-07-27T12:16:41.158Z,23
2022-07-27T12:18:42.177Z,23.07
2022-07-27T12:22:44.538Z,23.1
2022-07-27T12:24:45.988Z,23.24
2022-07-27T12:26:46.977Z,23.23
2022-07-27T12:28:48.647Z,23.11
2022-07-27T12:30:50.148Z,23.02
2022-07-27T12:32:55.318Z,22.99
2022-07-27T12:35:37.976Z,23.28
2022-07-27T12:37:37.228Z,23.14
2022-07-27T12:39:38.700Z,23.35
2022-07-27T12:41:39.621Z,23.14
2022-07-27T12:43:41.351Z,23.14
2022-07-27T12:45:42.334Z,23.19
2022-07-27T12:47:43.075Z,23.41
2022-07-27T12:49:46.510Z,23.81
2022-07-27T12:51:44.887Z,23.83
2022-07-27T12:53:45.977Z,23.53
2022-07-27T12:55:47.709Z,23.43
2022-07-27T12:57:55.973Z,23.79
2022-07-27T12:59:50.733Z,24.15
2022-07-27T13:01:53.428Z,24.08
2022-07-27T13:03:54.523Z,23.76
2022-07-27T13:05:56.250Z,24.08
2022-07-27T13:07:57.219Z,24.79
2022-07-27T13:10:02.478Z,24.61
2022-07-27T13:12:00.285Z,24.11
2022-07-27T13:14:00.168Z,24.57
2022-07-27T13:16:01.079Z,23.59
2022-07-27T13:18:02.111Z,23.5
2022-07-27T13:20:03.790Z,23.71
2022-07-27T13:22:05.179Z,23.78
2022-07-27T13:24:06.825Z,23.57
2022-07-27T13:26:08.449Z,23.64
2022-07-27T13:28:10.161Z,24.02
2022-07-27T13:30:11.205Z,24.55
2022-07-27T13:32:12.759Z,24.79
2022-07-27T13:34:13.986Z,24.93
2022-07-27T13:36:14.898Z,24.31
2022-07-27T13:38:16.690Z,24.42
2022-07-27T13:40:17.441Z,24.83
2022-07-27T13:42:18.838Z,24.83
2022-07-27T13:46:21.347Z,24.39
2022-07-27T13:48:22.282Z,24.26
2022-07-27T13:50:23.439Z,24.24
2022-07-27T13:52:24.478Z,24.26
2022-07-27T13:54:25.603Z,24.09
2022-07-27T13:58:27.572Z,23.81
2022-07-27T14:00:28.570Z,24.07
2022-07-27T14:02:29.798Z,23.85
2022-07-27T14:04:31.305Z,24.72
2022-07-27T14:06:32.824Z,24.46
2022-07-27T14:08:34.779Z,24.42
2022-07-27T14:10:35.633Z,24.34
2022-07-27T14:12:37.351Z,24.45
2022-07-27T14:14:38.354Z,24.44
2022-07-27T14:16:39.335Z,23.99
2022-07-27T14:18:40.061Z,23.49
2022-07-27T14:20:41.343Z,23.31
2022-07-27T14:22:42.772Z,23.58
2022-07-27T14:24:43.953Z,23.6
2022-07-27T14:26:45.278Z,23.97
2022-07-27T14:28:47.029Z,24.65
2022-07-27T14:30:48.244Z,24.1
2022-07-27T14:32:49.747Z,23.77
2022-07-27T14:34:51.238Z,24.01
2022-07-27T14:36:52.735Z,24.37
2022-07-27T14:38:53.540Z,24.1
2022-07-27T14:40:54.351Z,23.94
2022-07-27T14:42:55.980Z,24.25
2022-07-27T14:44:57.400Z,24.43
2022-07-27T14:46:59.008Z,24.33
2022-07-27T14:49:05.973Z,24.31
2022-07-27T14:51:01.803Z,23.88
2022-07-27T14:53:02.742Z,23.44
2022-07-27T14:55:04.540Z,23.37
2022-07-27T14:57:06.149Z,23.69
2022-07-27T14:59:07.779Z,24.34
2022-07-27T15:01:09.077Z,24.96
2022-07-27T15:03:10.062Z,25.85
2022-07-27T15:05:11.203Z,24.77
2022-07-27T15:07:12.590Z,25.11
2022-07-27T15:09:13.763Z,24.55
2022-07-27T15:11:15.059Z,24.18
2022-07-27T15:13:16.838Z,24.73
2022-07-27T15:15:17.860Z,25.09
2022-07-27T15:17:18.690Z,24.68
2022-07-27T15:19:20.300Z,24.7
2022-07-27T15:21:21.548Z,24.42
2022-07-27T15:23:22.952Z,24.25
2022-07-27T15:25:23.966Z,23.88
2022-07-27T15:27:25.400Z,23.69
2022-07-27T15:29:26.612Z,23.57
2022-07-27T15:31:28.128Z,23.6
2022-07-27T15:33:29.887Z,23.53
2022-07-27T15:35:31.219Z,23.64
2022-07-27T15:37:32.839Z,24.03
2022-07-27T15:39:33.859Z,24.15
2022-07-27T15:41:35.292Z,24.34
2022-07-27T15:43:37.097Z,24.07
2022-07-27T15:45:38.757Z,24.48
2022-07-27T15:47:39.914Z,25.25
2022-07-27T15:49:41.219Z,24.73
2022-07-27T15:51:42.002Z,24.84
2022-07-27T15:53:43.509Z,25.25
2022-07-27T15:55:44.539Z,25.25
2022-07-27T15:57:46.190Z,24.79
2022-07-27T15:59:47.870Z,24.79
2022-07-27T16:01:49.169Z,24.41
2022-07-27T16:03:50.706Z,24.05
2022-07-27T16:05:53.162Z,24.24
2022-07-27T16:07:54.532Z,24.02
2022-07-27T16:11:57.386Z,23.86
2022-07-27T16:13:58.302Z,24.12
2022-07-27T16:16:00.114Z,24.14
2022-07-27T16:18:01.472Z,23.43
2022-07-27T16:20:02.634Z,23.48
2022-07-27T16:22:03.882Z,23.43
2022-07-27T16:24:04.952Z,23.79
2022-07-27T16:26:06.594Z,24.74
2022-07-27T16:28:06.872Z,25.27
2022-07-27T16:30:07.977Z,25.57
2022-07-27T16:32:08.923Z,25.88
2022-07-27T16:34:10.173Z,25.41
2022-07-27T16:36:11.492Z,25.27
2022-07-27T16:38:12.551Z,24.48
2022-07-27T16:40:13.921Z,24.8
2022-07-27T16:42:15.586Z,24.24
2022-07-27T16:44:16.667Z,24.42
2022-07-27T16:46:18.013Z,25.2
2022-07-27T16:48:19.247Z,25.24
2022-07-27T16:50:20.892Z,24.61
2022-07-27T16:52:21.861Z,24.62
2022-07-27T16:54:23.525Z,24.85
2022-07-27T16:56:24.993Z,24.5
2022-07-27T16:58:25.735Z,23.97
2022-07-27T17:00:27.421Z,24.4
2022-07-27T17:02:28.385Z,24.32
2022-07-27T17:04:30.047Z,23.83
2022-07-27T17:06:30.795Z,23.43
2022-07-27T17:08:32.164Z,23.13
2022-07-27T17:10:32.984Z,23.05
2022-07-27T17:12:38.205Z,22.85
2022-07-27T17:14:36.140Z,23.05
2022-07-27T17:16:37.608Z,23.05
2022-07-27T17:18:40.397Z,23.22
2022-07-27T17:20:40.299Z,23.25
2022-07-27T17:22:41.826Z,22.99
2022-07-27T17:24:42.985Z,22.87
2022-07-27T17:26:44.043Z,22.77
2022-07-27T17:28:45.415Z,22.62
2022-07-27T17:30:47.106Z,22.54
2022-07-27T17:32:48.410Z,22.39
2022-07-27T17:34:49.335Z,22.32
2022-07-27T17:36:50.292Z,22.24
2022-07-27T17:38:51.811Z,22.21
2022-07-27T17:40:53.230Z,22.2
2022-07-27T17:42:54.093Z,22.13
2022-07-27T17:44:55.214Z,22.07
2022-07-27T17:46:56.404Z,22.08
2022-07-27T17:48:58.060Z,22.04
2022-07-27T17:50:59.275Z,21.97
2022-07-27T17:53:00.939Z,21.97
2022-07-27T17:55:02.369Z,22.01
2022-07-27T17:57:03.912Z,21.85
2022-07-27T17:59:20.280Z,21.79
2022-07-27T18:01:05.703Z,21.73
2022-07-27T18:03:07.359Z,21.65
2022-07-27T18:05:08.637Z,21.61
2022-07-27T18:07:09.736Z,21.56
2022-07-27T18:09:11.341Z,21.53
2022-07-27T18:11:12.302Z,21.43
2022-07-27T18:13:14.004Z,21.35
2022-07-27T18:15:15.567Z,21.33
2022-07-27T18:17:17.343Z,21.36
2022-07-27T18:19:18.815Z,21.31
2022-07-27T18:21:19.699Z,21.29
2022-07-27T18:23:21.128Z,21.16
2022-07-27T18:25:22.959Z,21.07
2022-07-27T18:27:24.403Z,20.93
2022-07-27T18:29:26.048Z,20.92
2022-07-27T18:31:27.425Z,20.81
2022-07-27T18:33:34.145Z,20.72
2022-07-27T18:35:30.158Z,20.6
2022-07-27T18:37:31.547Z,20.5
2022-07-27T18:39:34.006Z,20.5
2022-07-27T18:41:33.923Z,20.45
2022-07-27T18:43:34.916Z,20.34
2022-07-27T18:45:35.927Z,20.26
2022-07-27T18:47:37.463Z,20.25
2022-07-27T18:49:39.100Z,20.13
2022-07-27T18:51:40.139Z,20.12
2022-07-27T18:53:41.175Z,19.97
2022-07-27T18:55:42.772Z,19.91
2022-07-27T18:57:44.599Z,19.99
2022-07-27T18:59:46.007Z,19.92
2022-07-27T19:01:46.988Z,19.8
2022-07-27T19:03:47.868Z,19.74
2022-07-27T19:05:49.597Z,19.74
2022-07-27T19:07:51.369Z,19.62
2022-07-27T19:09:52.429Z,19.63
2022-07-27T19:11:54.187Z,19.6
2022-07-27T19:13:55.440Z,19.71
2022-07-27T19:15:57.150Z,19.58
2022-07-27T19:17:58.346Z,19.55
2022-07-27T19:20:00.053Z,19.51
2022-07-27T19:22:45.300Z,19.74
2022-07-27T19:24:48.251Z,19.46
2022-07-27T19:28:49.316Z,19.31
2022-07-27T19:30:50.931Z,19.3
2022-07-27T19:32:51.771Z,19.18
2022-07-27T19:34:53.210Z,19.31
2022-07-27T19:36:54.259Z,19.3
2022-07-27T19:38:55.406Z,19.21
2022-07-27T19:40:57.038Z,19.19
2022-07-27T19:42:58.570Z,19.08
2022-07-27T19:45:00.288Z,19.1
2022-07-27T19:47:01.988Z,18.93
2022-07-27T19:49:03.523Z,18.86
2022-07-27T19:51:06.969Z,18.71
2022-07-27T19:53:06.204Z,18.7
2022-07-27T19:55:07.689Z,18.81
2022-07-27T19:57:08.685Z,18.79
2022-07-27T19:59:10.480Z,18.79
2022-07-27T20:01:12.210Z,18.77
2022-07-27T20:03:12.880Z,18.6
2022-07-27T20:05:14.142Z,18.49
2022-07-27T20:07:15.557Z,18.47
2022-07-27T20:09:16.773Z,18.41
2022-07-27T20:11:18.451Z,18.45
2022-07-27T20:13:19.571Z,18.56
2022-07-27T20:15:22.410Z,18.52
2022-07-27T20:17:22.331Z,18.61
2022-07-27T20:19:23.552Z,18.5
2022-07-27T20:21:25.374Z,18.4
2022-07-27T20:23:26.835Z,18.39
2022-07-27T20:25:28.049Z,18.43
2022-07-27T20:27:29.141Z,18.34
2022-07-27T20:29:31.491Z,18.26
2022-07-27T20:31:31.886Z,18.22
2022-07-27T20:33:33.059Z,18.3
2022-07-27T20:35:37.383Z,18.32
2022-07-27T20:37:36.000Z,18.2
2022-07-27T20:39:37.792Z,18.12
2022-07-27T20:41:39.069Z,17.92
2022-07-27T20:43:40.845Z,17.85
2022-07-27T20:45:42.146Z,17.97
2022-07-27T20:47:43.267Z,18.3
2022-07-27T20:49:44.742Z,18.2
2022-07-27T20:51:46.500Z,18.25
2022-07-27T20:53:47.755Z,18.06
2022-07-27T20:55:49.235Z,18.21
2022-07-27T20:57:51.038Z,17.99
2022-07-27T20:59:52.705Z,17.83
2022-07-27T21:01:54.112Z,17.83
2022-07-27T21:03:55.909Z,17.67
2022-07-27T21:05:57.559Z,17.8
2022-07-27T21:07:58.459Z,17.57
2022-07-27T21:09:59.782Z,17.44
2022-07-27T21:12:00.761Z,17.49
2022-07-27T21:14:02.377Z,17.55
2022-07-27T21:16:03.547Z,17.68
2022-07-27T21:18:04.852Z,17.79
2022-07-27T21:20:06.077Z,17.81
2022-07-27T21:22:07.543Z,17.7
2022-07-27T21:24:09.234Z,17.7
2022-07-27T21:26:10.808Z,17.58
2022-07-27T21:28:15.122Z,17.8
2022-07-27T21:30:14.067Z,17.76
2022-07-27T21:32:15.110Z,17.57
2022-07-27T21:34:16.392Z,17.55
2022-07-27T21:36:17.455Z,17.5
2022-07-27T21:38:18.592Z,17.35
2022-07-27T21:40:19.699Z,17.34
2022-07-27T21:42:21.178Z,17.18
2022-07-27T21:44:22.171Z,17.14
2022-07-27T21:46:23.260Z,17.28
2022-07-27T21:48:24.711Z,17.1
2022-07-27T21:52:27.558Z,17.08
2022-07-27T21:54:29.039Z,16.81
2022-07-27T21:56:30.649Z,16.81
2022-07-27T21:58:31.633Z,16.65
2022-07-27T22:00:33.029Z,16.67
2022-07-27T22:02:34.078Z,16.58
2022-07-27T22:04:35.634Z,16.52
2022-07-27T22:06:37.294Z,16.68
2022-07-27T22:08:38.942Z,16.54
2022-07-27T22:10:40.687Z,16.44
2022-07-27T22:12:42.283Z,16.36
2022-07-27T22:14:43.229Z,16.24
2022-07-27T22:16:45.010Z,16.33
2022-07-27T22:18:45.862Z,16.43
2022-07-27T22:20:47.239Z,16.45
2022-07-27T22:22:48.726Z,16.47
2022-07-27T22:24:49.856Z,16.47
2022-07-27T22:26:51.616Z,16.4
2022-07-27T22:28:52.886Z,16.45
2022-07-27T22:30:59.719Z,16.38
2022-07-27T22:32:56.279Z,16.27
2022-07-27T22:34:57.727Z,16.19
2022-07-27T22:36:59.215Z,16.12
2022-07-27T22:39:00.776Z,16.07
2022-07-27T22:41:01.777Z,16.18
2022-07-27T22:43:03.231Z,16.08
2022-07-27T22:45:05.115Z,15.97
2022-07-27T22:47:06.172Z,15.83
2022-07-27T22:49:07.497Z,15.81
2022-07-27T22:51:08.714Z,15.81
2022-07-27T22:53:09.939Z,15.78
2022-07-27T22:55:10.964Z,15.7
2022-07-27T22:57:11.936Z,15.58
2022-07-27T22:59:13.051Z,15.51
2022-07-27T23:01:21.621Z,15.49
2022-07-27T23:03:15.649Z,15.4
2022-07-27T23:05:16.913Z,15.34
2022-07-27T23:07:18.716Z,15.29
2022-07-27T23:09:19.859Z,15.34
2022-07-27T23:11:20.885Z,15.42
2022-07-27T23:13:22.100Z,15.38
2022-07-27T23:15:23.091Z,15.31
2022-07-27T23:17:24.166Z,15.24
2022-07-27T23:19:25.428Z,15.19
2022-07-27T23:21:27.257Z,15.17
2022-07-27T23:23:28.453Z,15.15
2022-07-27T23:25:35.163Z,15.07
2022-07-27T23:27:31.420Z,15.01
2022-07-27T23:29:33.029Z,14.91
2022-07-27T23:31:34.741Z,14.83
2022-07-27T23:33:36.442Z,14.83
2022-07-27T23:35:37.887Z,14.94
2022-07-27T23:37:38.929Z,14.9
2022-07-27T23:39:40.741Z,14.83
2022-07-27T23:41:44.310Z,14.79
2022-07-27T23:43:43.514Z,14.95
2022-07-27T23:45:44.741Z,14.85
2022-07-27T23:47:46.196Z,14.94
2022-07-27T23:49:47.387Z,15.04
2022-07-27T23:51:48.944Z,15.01
2022-07-27T23:53:50.362Z,14.91
2022-07-27T23:55:51.816Z,15.01
2022-07-27T23:57:52.930Z,14.92
2022-07-27T23:59:54.248Z,15.15
